Time;durP1;ratioP1;P1;durP2;ratioP2;P2;SDS_P1;SDS_P2;PMS_P1;PMS_P2;Temp;Humidity;BMP_temperature;BMP_pressure;BME280_temperature;BME280_humidity;BME280_pressure;Samples;Min_cycle;Max_cycle;Signal;HPM_P1;HPM_P2
2023/10/16 00:04:27;;;;;;;3.90;2.30;;;;;;;5.91;79.41;99689.23;218191;1259;143202;-67
2023/10/16 00:09:34;;;;;;;3.00;2.60;;;;;;;5.93;79.06;99683.20;217435;1259;139730;-68
2023/10/16 00:14:38;;;;;;;3.70;2.40;;;;;;;5.93;79.14;99684.55;218678;1259;139885;-67
2023/10/16 00:19:46;;;;;;;3.20;1.60;;;;;;;5.94;79.25;99688.83;217745;1259;139467;-68
2023/10/16 00:24:51;;;;;;;3.10;2.20;;;;;;;5.96;79.03;99691.60;217285;1259;139700;-68
2023/10/16 00:29:57;;;;;;;2.70;1.40;;;;;;;5.97;78.83;99688.91;218019;1259;139573;-68
2023/10/16 00:35:03;;;;;;;3.30;1.90;;;;;;;5.98;79.06;99688.70;218006;1259;139296;-69
2023/10/16 00:40:10;;;;;;;5.30;1.70;;;;;;;6.00;79.05;99690.21;217442;1259;139393;-68
2023/10/16 00:45:19;;;;;;;5.10;2.00;;;;;;;6.00;78.85;99692.81;217117;1259;139500;-68
2023/10/16 00:50:26;;;;;;;3.10;2.00;;;;;;;5.98;79.07;99690.95;218324;1259;140504;-69
2023/10/16 00:55:32;;;;;;;4.00;1.30;;;;;;;5.99;79.03;99698.20;219939;1259;139542;-70
2023/10/16 01:00:38;;;;;;;5.40;2.10;;;;;;;6.02;79.00;99703.11;219907;1259;140500;-70
2023/10/16 01:05:49;;;;;;;2.50;2.30;;;;;;;6.04;79.14;99697.82;219904;1259;141337;-69
2023/10/16 01:10:58;;;;;;;3.10;1.70;;;;;;;6.06;79.18;99708.33;220000;1259;140962;-70
2023/10/16 01:16:04;;;;;;;1.30;1.00;;;;;;;6.09;78.56;99712.36;219170;1259;139745;-70
2023/10/16 01:21:09;;;;;;;1.20;1.20;;;;;;;6.11;78.82;99713.33;219094;1259;139920;-70
2023/10/16 01:26:13;;;;;;;11.00;2.80;;;;;;;6.14;78.76;99712.97;219120;1259;139884;-69
2023/10/16 01:31:19;;;;;;;2.60;1.80;;;;;;;6.14;78.92;99718.63;217700;1259;139878;-68
2023/10/16 01:36:26;;;;;;;3.20;2.00;;;;;;;6.11;78.75;99720.08;217941;1259;140994;-68
2023/10/16 01:41:32;;;;;;;5.80;3.00;;;;;;;6.11;79.28;99720.41;217985;1259;140231;-68
2023/10/16 01:46:37;;;;;;;2.70;2.50;;;;;;;6.12;78.98;99728.45;219096;1259;139891;-67
2023/10/16 01:51:44;;;;;;;1.70;1.60;;;;;;;6.14;78.93;99725.88;217379;1259;139285;-67
2023/10/16 01:56:50;;;;;;;4.80;2.00;;;;;;;6.17;79.22;99729.26;217399;1259;139193;-66
2023/10/16 02:01:57;;;;;;;3.70;1.90;;;;;;;6.20;79.03;99734.96;217912;1263;140459;-67
2023/10/16 02:07:02;;;;;;;6.40;3.30;;;;;;;6.15;78.69;99732.44;217357;1259;140600;-67
2023/10/16 02:12:14;;;;;;;2.10;1.70;;;;;;;6.13;78.94;99737.40;218033;1258;141046;-67
2023/10/16 02:17:22;;;;;;;3.10;2.40;;;;;;;6.11;79.07;99742.46;217362;1259;338028;-67
2023/10/16 02:22:31;;;;;;;5.60;2.40;;;;;;;6.12;79.02;99744.34;217287;1259;140217;-67
2023/10/16 02:27:36;;;;;;;4.10;1.90;;;;;;;6.12;79.37;99746.85;217514;1260;139249;-68
2023/10/16 02:32:42;;;;;;;2.50;1.70;;;;;;;6.14;79.32;99749.61;218222;1259;139626;-67
2023/10/16 02:37:50;;;;;;;2.30;1.60;;;;;;;6.14;78.84;99756.85;218695;1260;141450;-68
2023/10/16 02:43:00;;;;;;;1.90;1.30;;;;;;;6.12;79.10;99761.83;218594;1259;140728;-68
2023/10/16 02:48:09;;;;;;;1.60;1.30;;;;;;;6.12;79.15;99769.98;219411;1259;140049;-69
2023/10/16 02:53:16;;;;;;;3.20;1.90;;;;;;;6.12;79.16;99779.06;219369;1259;139797;-68
2023/10/16 02:58:24;;;;;;;;;;;;;;;6.10;78.96;99773.13;219046;1258;141409;-69
2023/10/16 03:03:28;;;;;;;4.20;1.80;;;;;;;6.09;79.31;99782.09;219936;1259;125761;-69
2023/10/16 03:08:32;;;;;;;2.50;1.00;;;;;;;6.12;79.71;99784.84;220165;1259;140670;-68
2023/10/16 03:13:39;;;;;;;1.70;1.60;;;;;;;6.14;79.50;99790.48;218059;1258;139673;-69
2023/10/16 03:18:48;;;;;;;5.40;2.70;;;;;;;6.15;78.99;99790.04;218377;1261;140990;-67
2023/10/16 03:23:55;;;;;;;2.70;1.30;;;;;;;6.16;79.15;99789.96;218398;1259;140004;-69
2023/10/16 03:29:05;;;;;;;3.80;1.40;;;;;;;6.18;79.54;99797.82;219191;1258;140100;-69
2023/10/16 03:34:11;;;;;;;3.70;1.80;;;;;;;6.21;79.13;99799.90;218926;1259;139379;-69
2023/10/16 03:39:19;;;;;;;5.40;2.40;;;;;;;6.21;79.27;99807.77;218903;1260;141478;-68
2023/10/16 03:44:27;;;;;;;2.40;1.60;;;;;;;6.23;79.67;99803.12;217809;1259;140203;-68
2023/10/16 03:49:31;;;;;;;3.20;1.60;;;;;;;6.24;79.51;99805.44;219217;1259;141227;-69
2023/10/16 03:54:39;;;;;;;5.20;1.60;;;;;;;6.25;79.45;99801.65;218773;1260;139404;-67
2023/10/16 03:59:47;;;;;;;1.80;1.10;;;;;;;6.27;79.56;99804.83;218753;1259;140026;-69
2023/10/16 04:04:54;;;;;;;4.90;2.00;;;;;;;6.28;79.42;99801.08;218033;1262;139613;-67
2023/10/16 04:10:21;;;;;;;4.40;2.50;;;;;;;6.27;79.41;99801.58;217347;1259;140350;-66
2023/10/16 04:31:55;;;;;;;2.00;1.80;;;;;;;6.29;79.34;99810.05;217652;1259;139847;-68
2023/10/16 06:18:53;;;;;;;2.10;1.90;;;;;;;6.54;78.55;99885.88;217259;1260;139494;-72
2023/10/16 06:24:01;;;;;;;6.10;2.40;;;;;;;6.55;78.52;99887.83;219485;1260;139543;-70
2023/10/16 06:29:06;;;;;;;6.30;2.90;;;;;;;6.56;78.36;99888.23;217633;1263;139760;-67
2023/10/16 06:34:11;;;;;;;5.50;2.20;;;;;;;6.58;78.43;99888.69;217726;1263;140759;-68
2023/10/16 06:39:29;;;;;;;10.80;7.00;;;;;;;6.59;78.65;99889.05;217979;1261;140584;-66
2023/10/16 06:44:34;;;;;;;3.70;2.30;;;;;;;6.62;78.84;99895.70;218559;1263;140647;-69
2023/10/16 06:49:39;;;;;;;3.00;2.60;;;;;;;6.64;78.02;99898.59;219099;1261;139763;-69
2023/10/16 06:54:44;;;;;;;2.70;2.50;;;;;;;6.69;77.90;99903.29;218338;1259;139724;-68
2023/10/16 06:59:50;;;;;;;2.30;2.20;;;;;;;6.75;78.34;99904.31;219290;1260;140251;-69
2023/10/16 07:05:05;;;;;;;2.20;2.00;;;;;;;6.88;77.99;99906.17;219124;1260;141302;-68
2023/10/16 07:10:13;;;;;;;2.90;1.50;;;;;;;7.04;78.12;99911.69;219208;1260;139895;-73
2023/10/16 07:15:24;;;;;;;5.10;1.60;;;;;;;7.19;77.28;99915.81;218276;1261;141631;-68
2023/10/16 07:20:55;;;;;;;5.20;3.00;;;;;;;7.30;77.37;99925.46;219435;1260;142152;-67
2023/10/16 07:26:06;;;;;;;4.60;2.10;;;;;;;7.37;77.04;99928.88;218686;1262;139505;-67
2023/10/16 07:31:16;;;;;;;3.60;2.70;;;;;;;7.33;76.63;99934.45;218343;1262;141388;-69
2023/10/16 07:36:26;;;;;;;9.00;3.90;;;;;;;7.28;76.90;99934.98;217898;1262;140249;-68
2023/10/16 07:41:38;;;;;;;20.80;8.90;;;;;;;7.29;76.60;99938.07;218100;1259;140973;-70
2023/10/16 07:46:44;;;;;;;5.70;3.90;;;;;;;7.28;76.77;99943.49;217921;1262;139536;-70
2023/10/16 07:51:55;;;;;;;3.60;3.20;;;;;;;7.27;76.14;99946.89;218781;1261;140272;-69
2023/10/16 07:57:03;;;;;;;2.10;1.90;;;;;;;7.24;75.91;99951.63;217537;1262;139567;-68
2023/10/16 08:02:17;;;;;;;3.90;1.60;;;;;;;7.15;75.75;99958.53;217869;1259;139426;-68
2023/10/16 08:07:46;;;;;;;3.60;1.80;;;;;;;7.12;76.13;99960.80;217634;1263;139706;-70
2023/10/16 08:12:55;;;;;;;2.60;2.40;;;;;;;7.10;75.79;99958.73;218734;1262;139747;-70
2023/10/16 08:18:10;;;;;;;4.50;2.10;;;;;;;7.13;76.28;99959.66;217664;1260;139508;-68
2023/10/16 08:23:21;;;;;;;3.60;2.70;;;;;;;7.17;76.33;99966.73;219120;1260;140244;-72
2023/10/16 08:28:35;;;;;;;5.60;3.50;;;;;;;7.18;76.19;99972.88;217674;1262;141266;-73
2023/10/16 08:33:41;;;;;;;5.60;3.70;;;;;;;7.18;76.26;99972.39;218713;1263;139504;-69
2023/10/16 08:38:55;;;;;;;6.40;3.70;;;;;;;7.39;76.69;99969.48;217577;1263;139685;-69
2023/10/16 08:44:06;;;;;;;4.40;4.00;;;;;;;7.63;76.61;99972.88;218376;1260;221989;-71
2023/10/16 08:49:15;;;;;;;5.10;4.60;;;;;;;7.73;76.01;99982.06;217787;1261;140317;-69
2023/10/16 09:00:10;;;;;;;4.20;3.20;;;;;;;7.92;75.63;99990.58;218475;1259;139788;-71
2023/10/16 09:05:16;;;;;;;6.20;3.60;;;;;;;7.88;75.27;99993.45;217954;1260;139491;-70
2023/10/16 09:10:22;;;;;;;6.70;3.60;;;;;;;7.86;75.51;100000.03;218515;1260;140314;-72
2023/10/16 09:15:27;;;;;;;4.50;2.40;;;;;;;7.88;75.08;99996.72;219233;1258;141620;-74
2023/10/16 09:20:33;;;;;;;7.30;4.10;;;;;;;8.16;75.32;99994.81;218586;1260;139880;-70
2023/10/16 09:25:46;;;;;;;6.70;3.60;;;;;;;8.43;75.06;99995.52;218921;1261;140623;-71
2023/10/16 09:30:52;;;;;;;2.50;2.30;;;;;;;8.59;74.69;99987.70;218214;1258;140167;-69
2023/10/16 09:36:20;;;;;;;6.30;3.80;;;;;;;8.62;73.98;99990.55;219134;1260;141608;-67
2023/10/16 09:46:48;;;;;;;7.10;3.00;;;;;;;8.68;73.77;99992.30;218761;1259;139993;-70
2023/10/16 09:51:59;;;;;;;5.30;2.80;;;;;;;8.71;73.47;99996.34;218313;1261;139969;-69
2023/10/16 09:57:17;;;;;;;12.70;5.90;;;;;;;8.70;73.23;99995.23;217903;1261;140802;-69
2023/10/16 10:02:25;;;;;;;7.90;3.60;;;;;;;8.60;72.79;99993.05;217760;1262;232011;-68
2023/10/16 10:07:37;;;;;;;2.90;2.50;;;;;;;8.60;73.08;99991.38;217488;1261;139940;-71
2023/10/16 10:12:47;;;;;;;5.60;3.50;;;;;;;8.74;73.17;99988.30;217518;1261;141009;-70
2023/10/16 10:18:02;;;;;;;7.10;3.20;;;;;;;8.81;72.86;99987.27;218235;1260;140278;-71
2023/10/16 10:23:12;;;;;;;4.10;2.40;;;;;;;8.91;72.69;99984.26;218994;1260;139894;-70
2023/10/16 10:28:25;;;;;;;2.50;2.30;;;;;;;8.97;72.53;99981.18;218333;1260;141295;-70
2023/10/16 10:33:43;;;;;;;11.00;3.70;;;;;;;9.18;72.20;99980.23;217964;1262;141695;-69
2023/10/16 10:38:48;;;;;;;3.40;2.20;;;;;;;9.38;71.94;99981.33;218773;1260;140568;-70
2023/10/16 10:44:08;;;;;;;4.60;2.90;;;;;;;9.37;71.19;99978.35;218816;1259;140052;-71
2023/10/16 10:49:33;;;;;;;6.00;2.00;;;;;;;9.40;70.80;99972.80;218855;1259;141139;-71
2023/10/16 10:54:48;;;;;;;5.60;2.20;;;;;;;9.32;70.35;99975.50;220037;1259;140564;-71
2023/10/16 11:05:35;;;;;;;4.20;3.10;;;;;;;9.99;70.25;99972.98;219696;1259;139968;-70
2023/10/16 11:10:46;;;;;;;5.30;2.90;;;;;;;10.17;69.83;99979.38;219998;1259;139884;-72
2023/10/16 11:15:53;;;;;;;8.90;3.20;;;;;;;10.18;69.17;99986.00;219566;1259;140022;-71
2023/10/16 11:21:04;;;;;;;5.80;2.00;;;;;;;10.11;68.66;99984.54;217684;1261;141438;-70
2023/10/16 11:26:16;;;;;;;3.50;1.70;;;;;;;10.02;68.47;99981.39;218685;1259;139904;-71
2023/10/16 11:31:22;;;;;;;4.30;2.90;;;;;;;10.02;68.34;99979.47;218697;1259;140434;-71
2023/10/16 11:36:28;;;;;;;7.70;2.60;;;;;;;9.87;68.29;99983.20;218181;1259;140050;-72
2023/10/16 11:41:43;;;;;;;5.50;2.40;;;;;;;9.74;68.45;99986.69;218291;1259;139567;-71
2023/10/16 11:46:52;;;;;;;7.60;3.50;;;;;;;9.68;68.47;99981.98;219233;1259;140336;-72
2023/10/16 11:52:09;;;;;;;10.50;3.20;;;;;;;9.60;68.50;99977.44;217279;1260;139872;-70
2023/10/16 11:57:14;;;;;;;6.10;2.60;;;;;;;9.46;68.15;99980.90;217514;1260;140613;-71
2023/10/16 12:02:21;;;;;;;3.50;2.80;;;;;;;9.30;68.30;99976.58;217304;1259;139678;-70
2023/10/16 12:07:26;;;;;;;3.30;2.40;;;;;;;9.33;68.54;99981.05;218029;1261;139826;-70
2023/10/16 12:12:32;;;;;;;5.00;3.20;;;;;;;9.39;68.69;99978.74;217918;1259;140653;-70
2023/10/16 12:17:38;;;;;;;5.00;2.90;;;;;;;9.54;68.75;99981.02;217339;1258;140306;-70
2023/10/16 12:22:44;;;;;;;7.70;3.20;;;;;;;9.61;68.37;99981.60;217958;1261;139614;-71
2023/10/16 12:27:52;;;;;;;3.30;2.10;;;;;;;9.66;68.10;99980.52;218495;1259;139966;-71
2023/10/16 12:32:59;;;;;;;5.50;2.70;;;;;;;9.56;67.56;99979.07;218961;1259;139698;-71
2023/10/16 12:38:04;;;;;;;3.60;3.30;;;;;;;9.55;67.74;99982.92;218434;1259;140094;-71
2023/10/16 12:43:10;;;;;;;5.90;2.60;;;;;;;9.51;67.44;99980.23;219160;1257;140600;-71
2023/10/16 12:48:21;;;;;;;6.40;3.10;;;;;;;9.39;67.28;99982.75;218001;1259;140386;-68
2023/10/16 12:53:29;;;;;;;6.50;2.40;;;;;;;9.32;67.07;99985.08;219926;1259;140596;-72
2023/10/16 12:58:35;;;;;;;8.00;3.30;;;;;;;9.31;67.00;99984.55;218830;1259;140058;-72
2023/10/16 13:03:41;;;;;;;;;;;;;;;9.39;66.99;99980.91;219976;1259;139906;-73
2023/10/16 13:08:47;;;;;;;3.00;2.20;;;;;;;9.48;67.07;99981.70;219541;1259;127316;-70
2023/10/16 13:13:55;;;;;;;3.20;1.50;;;;;;;9.60;67.05;99972.04;219817;1259;140844;-72
2023/10/16 13:19:03;;;;;;;3.80;1.70;;;;;;;9.71;66.89;99972.52;219232;1259;139564;-70
2023/10/16 13:24:10;;;;;;;5.10;2.50;;;;;;;9.68;66.18;99978.90;219342;1259;140408;-70
2023/10/16 13:29:19;;;;;;;3.80;1.60;;;;;;;9.60;65.79;99982.31;218162;1261;140212;-70
2023/10/16 13:34:25;;;;;;;5.00;2.10;;;;;;;9.54;65.81;99977.58;217981;1260;139703;-70
2023/10/16 13:39:38;;;;;;;3.50;2.30;;;;;;;9.55;65.79;99977.70;218413;1260;140287;-71
2023/10/16 13:44:46;;;;;;;4.00;2.10;;;;;;;9.50;65.72;99980.31;218586;1260;140436;-71
2023/10/16 13:49:53;;;;;;;17.30;5.20;;;;;;;9.53;65.71;99977.84;217190;1260;142254;-70
2023/10/16 13:54:58;;;;;;;4.00;2.60;;;;;;;9.53;65.57;99986.69;217632;1263;139844;-71
2023/10/16 14:00:05;;;;;;;15.40;4.50;;;;;;;9.48;65.58;99993.52;217440;1263;139963;-70
2023/10/16 14:05:13;;;;;;;5.10;2.60;;;;;;;9.52;65.55;99994.64;217821;1259;150459;-70
2023/10/16 14:10:21;;;;;;;3.80;2.00;;;;;;;9.49;65.45;99995.73;217913;1260;141872;-70
2023/10/16 14:15:32;;;;;;;5.00;2.60;;;;;;;9.44;65.40;99996.34;218250;1262;140658;-70
2023/10/16 14:20:39;;;;;;;3.50;2.10;;;;;;;9.37;65.49;100000.13;216980;1259;1765186;-70
2023/10/16 14:25:49;;;;;;;4.80;3.40;;;;;;;9.35;65.74;99998.71;217595;1259;139913;-70
2023/10/16 14:30:58;;;;;;;5.90;3.40;;;;;;;9.35;65.73;99998.42;218016;1261;140659;-70
2023/10/16 14:36:09;;;;;;;14.10;3.10;;;;;;;9.34;65.76;99995.03;217761;1260;140496;-70
2023/10/16 14:41:17;;;;;;;5.50;1.80;;;;;;;9.29;65.65;99998.80;219129;1259;140275;-71
2023/10/16 14:46:25;;;;;;;6.30;3.00;;;;;;;9.25;65.66;100004.09;219055;1259;140222;-70
2023/10/16 14:51:33;;;;;;;4.70;1.80;;;;;;;9.23;65.91;100007.33;220032;1258;142382;-70
2023/10/16 14:56:39;;;;;;;;;;;;;;;9.30;65.88;100004.54;220158;1259;140771;-72
2023/10/16 15:01:47;;;;;;;7.10;5.30;;;;;;;9.26;66.03;100004.36;220309;1259;126662;-70
2023/10/16 15:06:53;;;;;;;1.60;1.50;;;;;;;9.21;65.95;100007.02;218839;1259;140301;-71
2023/10/16 15:11:59;;;;;;;3.00;1.80;;;;;;;9.13;65.88;100012.43;219554;1258;140734;-70
2023/10/16 15:17:06;;;;;;;2.50;2.10;;;;;;;8.98;65.78;100017.00;219539;1259;141611;-71
2023/10/16 15:22:15;;;;;;;18.40;4.40;;;;;;;8.84;65.91;100026.86;218696;1259;140458;-69
2023/10/16 15:27:20;;;;;;;9.70;4.00;;;;;;;8.73;66.13;100035.29;218251;1259;141922;-70
2023/10/16 15:32:30;;;;;;;4.50;2.60;;;;;;;8.62;66.40;100042.34;217770;1259;140212;-70
2023/10/16 15:37:40;;;;;;;3.40;2.10;;;;;;;8.47;66.29;100045.88;218307;1259;141883;-71
2023/10/16 15:42:52;;;;;;;7.50;2.40;;;;;;;8.32;66.49;100052.18;217930;1259;139720;-69
2023/10/16 15:48:01;;;;;;;8.70;3.50;;;;;;;8.21;66.80;100051.84;217743;1259;140315;-70
2023/10/16 15:53:09;;;;;;;7.10;2.30;;;;;;;8.06;67.06;100050.98;217438;1260;139600;-70
2023/10/16 15:58:16;;;;;;;7.10;5.10;;;;;;;7.89;67.10;100059.14;217971;1259;139896;-70
2023/10/16 16:03:24;;;;;;;9.20;2.90;;;;;;;7.79;67.65;100066.39;217602;1262;139909;-70
2023/10/16 16:08:32;;;;;;;6.30;2.90;;;;;;;7.72;68.14;100073.59;217606;1258;140282;-68
2023/10/16 16:13:39;;;;;;;4.10;2.00;;;;;;;7.66;68.11;100082.88;218072;1258;140265;-69
2023/10/16 16:18:47;;;;;;;7.00;3.50;;;;;;;7.59;68.40;100085.64;217525;1259;141059;-69
2023/10/16 16:23:56;;;;;;;6.60;3.00;;;;;;;7.55;68.92;100088.86;217871;1259;142574;-70
2023/10/16 16:29:05;;;;;;;4.80;2.70;;;;;;;7.53;69.44;100092.41;218256;1260;141533;-69
2023/10/16 16:34:15;;;;;;;6.00;4.00;;;;;;;7.53;69.25;100096.78;218475;1259;140057;-71
2023/10/16 16:39:21;;;;;;;8.00;4.90;;;;;;;7.52;69.58;100102.82;218780;1259;141098;-70
2023/10/16 16:44:26;;;;;;;7.00;2.80;;;;;;;7.52;69.48;100105.67;218558;1259;139860;-70
2023/10/16 16:49:30;;;;;;;4.30;2.80;;;;;;;7.48;69.47;100106.40;218255;1257;140312;-69
2023/10/16 16:54:34;;;;;;;5.40;3.40;;;;;;;7.42;69.31;100107.92;220055;1259;140492;-70
2023/10/16 16:59:40;;;;;;;5.30;3.90;;;;;;;7.35;69.57;100117.10;220064;1258;141051;-69
2023/10/16 17:04:45;;;;;;;9.20;3.50;;;;;;;7.26;69.42;100119.03;219920;1258;140838;-70
2023/10/16 17:09:51;;;;;;;10.90;6.20;;;;;;;7.17;69.33;100121.55;219233;1259;142780;-70
2023/10/16 17:14:59;;;;;;;9.50;3.30;;;;;;;7.15;69.72;100131.66;220148;1259;139909;-70
2023/10/16 17:20:09;;;;;;;10.60;4.20;;;;;;;7.11;69.97;100133.98;219937;1258;141860;-70
2023/10/16 17:25:15;;;;;;;9.20;3.60;;;;;;;7.03;70.12;100133.52;218216;1258;140769;-69
2023/10/16 17:30:22;;;;;;;8.80;2.70;;;;;;;6.94;70.23;100136.73;218634;1259;141592;-69
2023/10/16 17:35:45;;;;;;;7.30;3.30;;;;;;;6.84;69.78;100140.21;217559;1259;140011;-70
2023/10/16 17:40:50;;;;;;;6.40;5.20;;;;;;;6.73;70.19;100146.80;217097;1259;139877;-69
2023/10/16 17:46:00;;;;;;;5.10;3.30;;;;;;;6.58;70.33;100147.65;217138;1259;153679;-69
2023/10/16 17:51:09;;;;;;;15.40;6.00;;;;;;;6.46;70.41;100149.34;217686;1262;140763;-68
2023/10/16 17:56:14;;;;;;;4.80;2.90;;;;;;;6.35;70.60;100151.39;218078;1260;140129;-69
2023/10/16 18:01:23;;;;;;;8.80;3.50;;;;;;;6.28;71.17;100155.72;218751;1257;139864;-69
2023/10/16 18:06:35;;;;;;;5.40;2.90;;;;;;;6.19;71.09;100150.36;218279;1257;140840;-70
2023/10/16 18:11:41;;;;;;;36.50;5.10;;;;;;;6.08;71.48;100142.86;218792;1259;139977;-70
2023/10/16 18:16:46;;;;;;;8.00;4.10;;;;;;;6.04;71.62;100150.79;217793;1258;139995;-70
2023/10/16 18:21:52;;;;;;;7.30;4.00;;;;;;;6.08;72.43;100157.09;217916;1261;230638;-69
2023/10/16 18:26:59;;;;;;;5.20;3.10;;;;;;;6.12;72.42;100164.13;218514;1259;141561;-69
2023/10/16 18:32:06;;;;;;;6.10;3.50;;;;;;;6.15;72.77;100167.92;218181;1259;139888;-68
2023/10/16 18:37:13;;;;;;;;;;;;;;;6.15;72.75;100165.90;218215;1258;140525;-69
2023/10/16 18:42:19;;;;;;;7.00;3.70;;;;;;;6.14;73.12;100168.23;218918;1259;126152;-70
2023/10/16 18:47:25;;;;;;;4.00;3.40;;;;;;;6.19;73.17;100181.06;218130;1258;139501;-69
2023/10/16 18:52:31;;;;;;;6.60;3.70;;;;;;;6.24;73.28;100183.63;218876;1259;142099;-70
2023/10/16 18:57:38;;;;;;;;;;;;;;;6.27;73.20;100190.16;218812;1257;140242;-69
2023/10/16 19:02:43;;;;;;;10.60;3.70;;;;;;;6.26;73.33;100193.73;220554;1258;127142;-70
2023/10/16 19:07:49;;;;;;;10.40;4.40;;;;;;;6.29;73.63;100195.39;220068;1257;140135;-70
2023/10/16 19:12:55;;;;;;;12.10;5.10;;;;;;;6.34;73.53;100202.88;220078;1257;140732;-70
2023/10/16 19:18:01;;;;;;;9.50;5.50;;;;;;;6.40;73.74;100210.23;220111;1257;141232;-70
2023/10/16 19:23:08;;;;;;;11.20;5.30;;;;;;;6.45;73.56;100217.70;218287;1258;140123;-68
2023/10/16 19:28:16;;;;;;;7.00;4.50;;;;;;;6.48;73.74;100218.94;217317;1258;139958;-68
2023/10/16 19:33:22;;;;;;;6.00;4.20;;;;;;;6.49;74.14;100228.12;218652;1257;139925;-69
2023/10/16 19:38:28;;;;;;;11.00;6.20;;;;;;;6.47;73.92;100226.30;218901;1257;140061;-69
2023/10/16 19:43:35;;;;;;;16.20;5.10;;;;;;;6.44;73.97;100232.41;218363;1259;140841;-68
2023/10/16 19:48:47;;;;;;;11.90;5.40;;;;;;;6.44;74.18;100233.88;218111;1257;140328;-69
2023/10/16 19:53:54;;;;;;;7.40;5.10;;;;;;;6.42;74.29;100239.48;218535;1260;140508;-70
2023/10/16 19:59:00;;;;;;;11.50;6.00;;;;;;;6.42;74.37;100241.40;218360;1258;142000;-69
2023/10/16 20:04:07;;;;;;;12.10;6.50;;;;;;;6.39;74.24;100249.71;217385;1259;140227;-70
2023/10/16 20:09:23;;;;;;;;;;;;;;;6.36;74.23;100252.05;218347;1258;141214;-69
2023/10/16 20:14:31;;;;;;;7.10;4.90;;;;;;;6.30;74.34;100257.02;218572;1259;126930;-71
2023/10/16 20:19:38;;;;;;;21.40;7.00;;;;;;;6.26;74.54;100265.67;217551;1259;207184;-72
2023/10/16 20:24:44;;;;;;;15.20;8.20;;;;;;;6.24;74.42;100268.23;217771;1261;140017;-71
2023/10/16 20:29:51;;;;;;;20.10;7.80;;;;;;;6.23;74.33;100276.31;219236;1259;141171;-72
2023/10/16 20:35:00;;;;;;;17.90;8.20;;;;;;;6.22;74.49;100282.38;217625;1262;140005;-70
2023/10/16 20:40:07;;;;;;;13.70;6.50;;;;;;;6.15;74.66;100287.83;218025;1260;140247;-71
2023/10/16 20:45:16;;;;;;;16.60;8.40;;;;;;;6.05;74.49;100288.41;218001;1259;139808;-70
2023/10/16 20:50:25;;;;;;;14.80;8.20;;;;;;;5.93;74.26;100292.09;217858;1259;140293;-68
2023/10/16 20:55:38;;;;;;;11.60;7.70;;;;;;;5.82;74.70;100296.73;218945;1258;140779;-70
2023/10/16 21:00:48;;;;;;;16.00;8.40;;;;;;;5.75;74.65;100296.59;217788;1260;140380;-70
2023/10/16 21:05:53;;;;;;;15.90;9.70;;;;;;;5.64;74.72;100302.83;219215;1259;140544;-70
2023/10/16 21:10:59;;;;;;;30.90;12.10;;;;;;;5.56;74.67;100303.60;218965;1259;141348;-71
2023/10/16 21:16:05;;;;;;;19.30;9.80;;;;;;;5.51;74.90;100306.80;218351;1259;140423;-72
2023/10/16 21:21:14;;;;;;;23.00;10.70;;;;;;;5.47;74.99;100306.45;218876;1259;140148;-70
2023/10/16 21:26:20;;;;;;;16.70;10.90;;;;;;;5.37;74.88;100308.95;218575;1259;139950;-71
2023/10/16 21:31:26;;;;;;;77.90;43.40;;;;;;;5.25;74.83;100306.89;217890;1259;141201;-72
2023/10/16 21:36:31;;;;;;;51.60;24.70;;;;;;;5.16;74.87;100315.27;217502;1262;139996;-70
2023/10/16 21:41:41;;;;;;;22.00;13.50;;;;;;;5.05;75.30;100314.95;217589;1260;140414;-70
2023/10/16 21:46:47;;;;;;;29.10;16.00;;;;;;;4.97;75.32;100308.79;218563;1260;140688;-72
2023/10/16 21:51:53;;;;;;;22.00;12.30;;;;;;;4.90;75.91;100314.59;217895;1262;139288;-70
2023/10/16 21:56:59;;;;;;;20.00;12.60;;;;;;;4.80;75.64;100316.99;217786;1260;140864;-70
2023/10/16 22:02:06;;;;;;;21.90;11.80;;;;;;;4.70;75.64;100314.13;218138;1262;140176;-68
2023/10/16 22:07:12;;;;;;;18.70;12.20;;;;;;;4.60;75.72;100314.96;217743;1262;140556;-68
2023/10/16 22:12:17;;;;;;;19.40;10.50;;;;;;;4.47;75.73;100316.89;218536;1258;140354;-71
2023/10/16 22:17:23;;;;;;;20.20;11.40;;;;;;;4.33;75.83;100323.83;217763;1259;142242;-71
2023/10/16 22:22:27;;;;;;;17.70;11.90;;;;;;;4.25;76.02;100324.58;217565;1259;140191;-70
2023/10/16 22:27:32;;;;;;;23.70;11.40;;;;;;;4.17;76.12;100327.28;218209;1258;140573;-71
2023/10/16 22:32:37;;;;;;;17.90;11.60;;;;;;;4.08;76.45;100327.41;217841;1259;139875;-68
2023/10/16 22:37:42;;;;;;;25.90;13.10;;;;;;;3.99;76.32;100332.54;218620;1259;140498;-68
2023/10/16 22:42:48;;;;;;;31.20;13.60;;;;;;;3.90;76.47;100331.51;218415;1260;140335;-67
2023/10/16 22:47:53;;;;;;;20.50;13.80;;;;;;;3.85;76.81;100339.58;219475;1259;140826;-67
2023/10/16 22:52:59;;;;;;;23.20;13.60;;;;;;;3.82;77.02;100341.25;218099;1260;140659;-65
2023/10/16 22:58:06;;;;;;;18.30;12.80;;;;;;;3.76;76.93;100340.00;218671;1258;140368;-66
2023/10/16 23:03:14;;;;;;;;;;;;;;;3.66;77.02;100344.02;220009;1259;141750;-66
2023/10/16 23:08:18;;;;;;;27.50;12.50;;;;;;;3.60;77.30;100341.14;218729;1257;126759;-65
2023/10/16 23:13:25;;;;;;;20.20;11.90;;;;;;;3.56;77.35;100335.79;219642;1260;140170;-68
2023/10/16 23:18:30;;;;;;;23.80;12.60;;;;;;;3.52;77.44;100332.06;220024;1259;140565;-69
2023/10/16 23:23:35;;;;;;;21.40;12.20;;;;;;;3.44;77.41;100330.09;219877;1258;140859;-68
2023/10/16 23:28:39;;;;;;;22.00;11.30;;;;;;;3.36;77.47;100328.54;218504;1259;140133;-68
2023/10/16 23:33:46;;;;;;;24.10;11.60;;;;;;;3.31;77.56;100329.10;219211;1257;140452;-69
2023/10/16 23:38:52;;;;;;;;;;;;;;;3.22;77.36;100332.43;218830;1262;140188;-69
2023/10/16 23:44:14;;;;;;;23.10;10.90;;;;;;;3.09;77.35;100331.60;218755;1261;126021;-67
2023/10/16 23:49:21;;;;;;;18.90;12.30;;;;;;;3.02;77.74;100332.77;218476;1258;140429;-68
2023/10/16 23:54:41;;;;;;;24.10;13.30;;;;;;;3.00;78.04;100336.16;218212;1260;142101;-68
2023/10/16 23:59:49;;;;;;;24.70;12.80;;;;;;;3.02;78.56;100333.13;218540;1260;139895;-68
